Time;durP1;ratioP1;P1;durP2;ratioP2;P2;SDS_P1;SDS_P2;PMS_P1;PMS_P2;Temp;Humidity;BMP_temperature;BMP_pressure;BME280_temperature;BME280_humidity;BME280_pressure;Samples;Min_cycle;Max_cycle;Signal;HPM_P1;HPM_P2
2022/03/22 00:01:31;;;;;;;22.00;15.82;;;;;;;8.60;71.01;102852.59;5055744;28;20041;-87
2022/03/22 00:03:56;;;;;;;20.30;15.57;;;;;;;8.59;70.96;102856.28;5056019;28;20492;-87
2022/03/22 00:06:22;;;;;;;19.55;15.65;;;;;;;8.53;70.41;102855.06;5056012;28;20040;-87
2022/03/22 00:08:48;;;;;;;21.23;15.52;;;;;;;8.52;70.56;102860.59;5054819;28;20091;-88
2022/03/22 00:11:14;;;;;;;20.70;14.90;;;;;;;8.50;71.07;102858.06;5054825;28;20468;-87
2022/03/22 00:13:44;;;;;;;20.75;16.13;;;;;;;8.47;71.46;102869.19;5037212;28;20041;-88
2022/03/22 00:16:09;;;;;;;21.45;15.35;;;;;;;8.46;71.09;102851.25;5054422;28;20052;-87
2022/03/22 00:18:38;;;;;;;20.70;15.57;;;;;;;8.45;70.54;102859.53;5037896;28;20106;-88
2022/03/22 00:21:03;;;;;;;20.55;15.43;;;;;;;8.42;71.18;102860.66;5038063;28;20061;-87
2022/03/22 00:23:29;;;;;;;21.83;15.73;;;;;;;8.40;71.30;102862.63;5055421;28;20079;-88
2022/03/22 00:25:54;;;;;;;22.05;16.73;;;;;;;8.36;71.14;102859.41;5037777;28;20496;-88
2022/03/22 00:28:20;;;;;;;22.30;16.10;;;;;;;8.35;71.92;102865.81;5055458;28;20112;-87
2022/03/22 00:30:45;;;;;;;21.50;16.27;;;;;;;8.32;71.68;102868.81;5055009;28;20048;-88
2022/03/22 00:33:13;;;;;;;22.23;16.95;;;;;;;8.28;71.41;102866.56;5037465;28;20461;-88
2022/03/22 00:35:40;;;;;;;21.58;16.60;;;;;;;8.25;72.07;102867.72;5037793;28;20037;-88
2022/03/22 00:38:08;;;;;;;22.15;16.63;;;;;;;8.23;72.51;102872.44;5054782;28;20033;-87
2022/03/22 00:40:35;;;;;;;20.40;15.48;;;;;;;8.23;72.37;102875.13;5053726;28;20029;-88
2022/03/22 00:43:01;;;;;;;20.40;15.38;;;;;;;8.18;72.27;102874.72;5038139;28;20480;-87
2022/03/22 00:45:32;;;;;;;23.65;16.83;;;;;;;8.17;71.25;102875.75;5054178;28;20040;-87
2022/03/22 00:47:58;;;;;;;22.42;17.05;;;;;;;8.13;71.85;102877.88;5037496;28;20036;-87
2022/03/22 00:50:29;;;;;;;23.00;16.38;;;;;;;8.11;71.15;102874.47;5037290;28;20078;-87
2022/03/22 00:52:56;;;;;;;22.03;16.43;;;;;;;8.08;71.38;102877.47;5054685;28;20028;-87
2022/03/22 00:55:23;;;;;;;21.52;16.23;;;;;;;8.06;72.22;102874.94;5054752;28;20337;-87
2022/03/22 00:57:51;;;;;;;20.60;15.57;;;;;;;8.04;71.99;102879.63;5053306;28;20041;-87
2022/03/22 01:00:20;;;;;;;21.63;15.70;;;;;;;8.04;72.39;102881.47;5037334;28;20041;-87
2022/03/22 01:02:49;;;;;;;20.63;15.48;;;;;;;8.02;72.11;102876.22;5036897;28;20044;-88
2022/03/22 01:05:19;;;;;;;21.02;15.55;;;;;;;8.02;72.46;102881.63;5053338;28;20025;-87
2022/03/22 01:07:46;;;;;;;19.33;14.68;;;;;;;8.01;72.01;102869.09;5037444;28;20064;-87
2022/03/22 01:10:13;;;;;;;21.35;15.88;;;;;;;7.97;72.69;102878.53;5053388;28;20129;-87
2022/03/22 01:12:42;;;;;;;20.48;15.52;;;;;;;7.97;72.37;102877.66;5036989;28;20076;-88
2022/03/22 01:15:15;;;;;;;19.35;15.27;;;;;;;7.94;72.88;102876.09;5036720;28;20397;-87
2022/03/22 01:17:47;;;;;;;19.42;14.73;;;;;;;7.93;72.37;102877.13;5054608;28;20021;-87
2022/03/22 01:20:13;;;;;;;;;;;;;;;7.92;66.80;102877.28;5051077;28;20174;-87
2022/03/22 01:22:42;;;;;;;19.60;14.45;;;;;;;7.86;72.75;102876.84;5052834;28;19951;-87
2022/03/22 01:25:09;;;;;;;17.30;13.23;;;;;;;7.86;72.97;102876.84;5054184;28;20029;-87
2022/03/22 01:27:36;;;;;;;20.10;14.63;;;;;;;7.84;72.71;102872.59;5052947;28;20110;-87
2022/03/22 01:30:07;;;;;;;19.73;14.30;;;;;;;7.82;72.42;102886.25;5036376;28;20126;-88
2022/03/22 01:32:34;;;;;;;19.50;13.68;;;;;;;7.82;73.38;102880.00;5054632;28;20036;-88
2022/03/22 01:35:04;;;;;;;19.77;14.35;;;;;;;7.82;73.22;102890.81;5054536;28;20040;-88
2022/03/22 01:37:30;;;;;;;20.23;14.15;;;;;;;7.81;72.92;102883.69;5054157;28;20044;-87
2022/03/22 01:39:56;;;;;;;19.15;13.70;;;;;;;7.78;72.94;102884.84;5053498;28;20024;-88
2022/03/22 01:42:22;;;;;;;18.95;13.88;;;;;;;7.78;72.92;102900.19;5052785;28;20029;-88
2022/03/22 01:44:48;;;;;;;19.58;14.48;;;;;;;7.78;72.16;102886.69;5054133;28;20086;-88
2022/03/22 01:47:16;;;;;;;16.83;13.32;;;;;;;7.77;72.27;102885.84;5052860;28;20035;-88
2022/03/22 01:49:42;;;;;;;18.02;13.07;;;;;;;7.77;72.74;102879.59;5053535;28;20037;-88
2022/03/22 01:52:13;;;;;;;18.85;13.60;;;;;;;7.81;73.19;102889.09;5036171;28;20082;-88
2022/03/22 01:54:38;;;;;;;19.33;13.48;;;;;;;7.86;72.65;102884.13;5035564;28;20032;-88
2022/03/22 01:57:04;;;;;;;18.27;13.40;;;;;;;7.89;73.17;102878.41;5020027;28;20029;-88
2022/03/22 01:59:29;;;;;;;17.88;13.05;;;;;;;7.90;72.95;102872.00;5036116;28;20037;-87
2022/03/22 02:07:31;;;;;;;15.80;11.18;;;;;;;7.87;71.54;102875.84;5053868;28;20052;-88
2022/03/22 02:09:59;;;;;;;16.13;11.73;;;;;;;7.87;72.17;102877.72;5036378;28;20033;-88
2022/03/22 02:12:24;;;;;;;14.90;11.00;;;;;;;7.85;71.94;102872.47;5019718;28;20499;-87
2022/03/22 02:14:50;;;;;;;16.45;11.23;;;;;;;7.85;71.67;102871.59;5035747;28;20048;-88
2022/03/22 02:17:15;;;;;;;14.30;10.40;;;;;;;7.84;72.05;102872.59;5020187;28;20035;-87
2022/03/22 02:19:41;;;;;;;17.80;11.88;;;;;;;7.84;72.08;102861.78;5019309;28;20025;-87
2022/03/22 02:22:12;;;;;;;15.75;10.73;;;;;;;7.82;71.85;102869.19;5035781;28;20045;-87
2022/03/22 02:24:38;;;;;;;16.83;12.07;;;;;;;7.82;72.29;102863.78;5053906;28;20040;-87
2022/03/22 02:27:06;;;;;;;13.75;10.23;;;;;;;7.81;72.47;102859.38;5053528;28;20498;-87
2022/03/22 02:29:31;;;;;;;15.02;10.98;;;;;;;7.81;71.81;102865.66;5035758;28;20037;-87
2022/03/22 02:31:57;;;;;;;14.32;10.40;;;;;;;7.81;72.03;102860.25;5035442;28;20045;-87
2022/03/22 02:34:23;;;;;;;13.75;10.32;;;;;;;7.79;71.74;102858.66;5035839;28;20033;-88
2022/03/22 02:36:48;;;;;;;14.25;10.48;;;;;;;7.75;72.00;102862.66;5036056;28;20174;-88
2022/03/22 02:39:14;;;;;;;15.15;10.57;;;;;;;7.71;72.31;102862.13;5056374;28;20393;-87
2022/03/22 02:41:42;;;;;;;15.55;10.40;;;;;;;7.70;71.88;102871.22;5056305;28;20099;-88
2022/03/22 02:44:10;;;;;;;15.57;11.20;;;;;;;7.69;71.97;102872.19;5058021;28;20033;-88
2022/03/22 02:46:36;;;;;;;15.02;10.40;;;;;;;7.63;71.77;102867.41;5058299;28;20040;-87
2022/03/22 02:49:02;;;;;;;14.77;10.10;;;;;;;7.60;71.86;102871.22;5039774;28;20032;-87
2022/03/22 02:51:28;;;;;;;13.05;9.80;;;;;;;7.58;71.88;102873.25;5057421;28;20545;-88
2022/03/22 02:53:53;;;;;;;13.15;9.70;;;;;;;7.61;72.33;102872.09;5039476;28;20042;-86
2022/03/22 02:56:19;;;;;;;12.02;9.07;;;;;;;7.61;72.00;102870.25;5039551;28;20036;-87
2022/03/22 02:58:45;;;;;;;13.48;9.50;;;;;;;7.58;72.26;102867.84;5023109;28;20060;-88
2022/03/22 03:01:13;;;;;;;12.57;9.65;;;;;;;7.55;72.12;102874.38;5055931;28;20491;-87
2022/03/22 03:03:39;;;;;;;12.55;9.27;;;;;;;7.48;72.29;102867.84;5023841;28;20043;-87
2022/03/22 03:06:06;;;;;;;12.60;9.50;;;;;;;7.45;72.43;102875.41;5023134;28;20393;-87
2022/03/22 03:08:31;;;;;;;14.00;10.02;;;;;;;7.42;72.66;102876.53;5039103;28;20029;-87
2022/03/22 03:10:57;;;;;;;12.88;10.00;;;;;;;7.38;72.58;102869.72;5055728;28;20124;-87
2022/03/22 03:13:23;;;;;;;15.05;10.43;;;;;;;7.37;72.92;102871.56;5022595;28;20029;-87
2022/03/22 03:15:50;;;;;;;14.23;9.45;;;;;;;7.35;72.86;102875.41;5023549;28;20056;-87
2022/03/22 03:18:18;;;;;;;14.20;10.45;;;;;;;7.31;73.28;102874.00;5056879;28;20025;-87
2022/03/22 03:20:44;;;;;;;14.73;11.05;;;;;;;7.29;72.89;102870.59;5023210;28;20480;-87
2022/03/22 03:23:12;;;;;;;14.55;10.48;;;;;;;7.26;72.59;102873.56;5038830;28;20037;-87
2022/03/22 03:25:38;;;;;;;13.90;10.18;;;;;;;7.22;73.07;102878.44;5038166;28;20052;-87
2022/03/22 03:28:03;;;;;;;13.07;9.90;;;;;;;7.20;73.23;102883.97;5056645;28;20449;-87
2022/03/22 03:30:30;;;;;;;14.90;11.00;;;;;;;7.19;73.49;102878.72;5039061;28;20036;-87
2022/03/22 03:32:56;;;;;;;15.35;9.88;;;;;;;7.18;73.17;102879.69;5038646;28;20025;-87
2022/03/22 03:35:21;;;;;;;15.48;10.55;;;;;;;7.16;73.22;102878.97;5055284;28;20036;-87
2022/03/22 03:37:47;;;;;;;13.68;10.18;;;;;;;7.13;73.05;102885.53;5038669;28;20039;-86
2022/03/22 03:40:13;;;;;;;14.60;10.98;;;;;;;7.10;73.16;102891.22;5038570;28;20072;-87
2022/03/22 03:42:42;;;;;;;14.20;11.00;;;;;;;7.06;73.62;102888.91;5038704;28;20036;-88
2022/03/22 03:48:00;;;;;;;16.92;10.98;;;;;;;6.99;73.58;102897.59;5056318;28;20544;-87
2022/03/22 03:50:26;;;;;;;14.18;10.10;;;;;;;6.95;73.67;102898.88;5037966;28;20112;-87
2022/03/22 03:52:52;;;;;;;14.90;11.27;;;;;;;6.92;73.81;102896.44;5021977;28;20465;-87
2022/03/22 03:55:17;;;;;;;16.45;11.18;;;;;;;6.90;73.87;102903.00;5055992;28;20462;-87
2022/03/22 03:57:44;;;;;;;15.38;11.10;;;;;;;6.85;73.50;102892.63;5038182;28;20056;-87
2022/03/22 04:00:10;;;;;;;15.75;10.70;;;;;;;6.84;73.90;102904.41;5021901;28;20032;-87
2022/03/22 04:02:36;;;;;;;15.30;10.88;;;;;;;6.81;73.94;102908.22;5038348;28;20060;-87
2022/03/22 04:05:01;;;;;;;16.27;10.27;;;;;;;6.79;73.90;102904.84;5055695;28;20056;-87
2022/03/22 04:07:27;;;;;;;13.80;9.98;;;;;;;6.77;74.24;102909.50;5038275;28;20400;-87
2022/03/22 04:09:57;;;;;;;14.20;10.40;;;;;;;6.75;74.40;102899.88;5038027;28;20035;-87
2022/03/22 04:12:23;;;;;;;14.23;10.50;;;;;;;6.74;74.32;102904.38;5054612;28;20045;-87
2022/03/22 04:14:50;;;;;;;14.68;10.13;;;;;;;6.73;74.54;102916.19;5056110;28;20029;-88
2022/03/22 04:17:17;;;;;;;14.50;10.60;;;;;;;6.71;73.89;102907.38;5038536;28;20530;-87
2022/03/22 04:19:43;;;;;;;13.57;10.50;;;;;;;6.68;73.89;102911.19;5037947;28;20056;-87
2022/03/22 04:22:08;;;;;;;13.35;10.40;;;;;;;6.65;74.08;102907.94;5021381;28;20068;-87
2022/03/22 04:24:34;;;;;;;14.63;10.65;;;;;;;6.63;74.30;102905.38;5055480;28;20048;-87
2022/03/22 04:32:44;;;;;;;15.05;11.18;;;;;;;6.55;74.13;102910.59;5056115;28;20434;-87
2022/03/22 04:35:13;;;;;;;14.07;10.77;;;;;;;6.53;74.09;102919.84;5039850;28;20036;-86
2022/03/22 04:37:39;;;;;;;14.13;10.55;;;;;;;6.47;74.41;102905.91;5037437;28;20083;-87
2022/03/22 04:40:06;;;;;;;15.13;10.55;;;;;;;6.46;74.94;102903.34;5020982;28;20041;-87
2022/03/22 04:42:32;;;;;;;15.15;10.35;;;;;;;6.44;74.95;102902.63;5005093;28;20037;-87
2022/03/22 04:44:57;;;;;;;13.95;10.20;;;;;;;6.42;74.97;102908.16;5021374;28;20102;-88
2022/03/22 04:47:23;;;;;;;14.25;10.63;;;;;;;6.41;75.05;102902.91;5037204;28;20384;-87
2022/03/22 04:49:48;;;;;;;13.88;10.63;;;;;;;6.39;75.18;102905.75;5037145;28;20029;-87
2022/03/22 04:57:51;;;;;;;14.90;10.52;;;;;;;6.30;74.67;102917.31;5054910;28;20075;-87
2022/03/22 05:00:16;;;;;;;14.55;10.15;;;;;;;6.27;75.57;102923.84;5037161;28;20049;-87
2022/03/22 05:02:42;;;;;;;14.90;10.73;;;;;;;6.26;75.36;102923.97;5036584;28;20458;-87
2022/03/22 05:05:07;;;;;;;15.07;11.38;;;;;;;6.25;75.17;102923.13;5037265;28;20033;-88
2022/03/22 05:07:33;;;;;;;17.02;10.95;;;;;;;6.22;75.84;102926.09;5036868;28;20033;-87
2022/03/22 05:09:58;;;;;;;14.98;10.90;;;;;;;6.21;75.59;102926.25;5054957;28;20021;-87
2022/03/22 05:12:24;;;;;;;14.05;10.70;;;;;;;6.18;75.39;102921.13;5037097;28;20475;-87
2022/03/22 05:14:50;;;;;;;13.48;10.48;;;;;;;6.18;76.02;102929.22;5036838;28;20032;-87
2022/03/22 05:17:21;;;;;;;13.60;10.15;;;;;;;6.15;76.10;102933.88;5036977;28;20040;-86
2022/03/22 05:19:49;;;;;;;14.05;10.43;;;;;;;6.12;76.16;102938.69;5054904;28;20358;-87
2022/03/22 05:22:15;;;;;;;13.85;10.48;;;;;;;6.10;75.93;102940.66;5054016;28;20366;-87
2022/03/22 05:24:41;;;;;;;14.80;10.95;;;;;;;6.08;75.94;102943.50;5036566;28;20025;-87
2022/03/22 05:27:07;;;;;;;14.23;10.50;;;;;;;6.06;76.30;102944.63;5054400;28;20033;-87
2022/03/22 05:29:33;;;;;;;14.15;10.88;;;;;;;6.05;75.97;102945.59;5019919;28;20040;-87
2022/03/22 05:31:58;;;;;;;13.80;9.95;;;;;;;6.01;76.11;102949.53;5019968;28;20072;-87
2022/03/22 05:34:24;;;;;;;13.02;10.02;;;;;;;5.98;76.60;102958.75;5053802;28;20114;-87
2022/03/22 05:36:50;;;;;;;14.73;10.57;;;;;;;5.97;76.34;102957.88;5035998;28;20437;-87
2022/03/22 05:39:15;;;;;;;14.30;10.57;;;;;;;5.96;76.37;102948.09;5053012;28;20029;-87
2022/03/22 05:41:41;;;;;;;15.73;11.00;;;;;;;5.94;76.78;102950.03;5020276;28;20064;-87
2022/03/22 05:44:07;;;;;;;16.45;10.45;;;;;;;5.91;76.36;102953.00;5020515;28;20033;-87
2022/03/22 05:46:34;;;;;;;18.23;11.00;;;;;;;5.92;76.59;102954.72;5019771;28;20397;-87
2022/03/22 05:49:01;;;;;;;14.65;11.20;;;;;;;5.94;76.39;102954.59;5053970;28;20048;-87
2022/03/22 05:51:27;;;;;;;14.93;10.68;;;;;;;5.93;76.63;102956.41;5036228;28;20099;-87
2022/03/22 05:53:52;;;;;;;14.80;10.77;;;;;;;5.95;75.92;102953.63;5036643;28;20033;-87
2022/03/22 05:56:18;;;;;;;13.65;9.88;;;;;;;5.97;76.39;102949.81;5036600;28;20464;-87
2022/03/22 05:58:43;;;;;;;15.00;10.10;;;;;;;5.98;76.24;102950.69;5054147;28;20056;-87
2022/03/22 06:01:09;;;;;;;14.80;10.75;;;;;;;6.00;75.88;102955.94;5020003;28;20033;-87
2022/03/22 06:03:35;;;;;;;15.38;10.85;;;;;;;6.02;75.88;102957.50;5035957;28;20093;-87
2022/03/22 06:06:01;;;;;;;15.70;11.00;;;;;;;6.05;76.10;102956.38;5053794;28;20033;-86
2022/03/22 06:08:29;;;;;;;15.90;11.55;;;;;;;6.07;76.30;102955.25;5036674;28;20563;-87
2022/03/22 06:10:55;;;;;;;16.10;11.57;;;;;;;6.11;75.92;102963.91;5019741;28;20037;-86
2022/03/22 06:13:20;;;;;;;17.02;11.68;;;;;;;6.16;75.97;102964.38;5035852;28;20041;-87
2022/03/22 06:15:47;;;;;;;16.75;11.65;;;;;;;6.20;76.29;102964.97;5053891;28;20043;-87
2022/03/22 06:18:12;;;;;;;16.88;12.13;;;;;;;6.27;75.93;102966.97;5035974;28;20063;-86
2022/03/22 06:20:42;;;;;;;15.98;11.95;;;;;;;6.32;75.79;102972.84;5053713;28;20032;-87
2022/03/22 06:23:10;;;;;;;16.90;12.20;;;;;;;6.40;75.54;102968.59;5054134;28;20178;-87
2022/03/22 06:25:39;;;;;;;18.52;12.43;;;;;;;6.44;75.36;102970.06;5053010;28;20052;-87
2022/03/22 06:28:07;;;;;;;17.67;12.10;;;;;;;6.52;75.36;102966.66;5052103;28;20025;-87
2022/03/22 06:30:34;;;;;;;19.42;12.55;;;;;;;6.58;74.70;102969.66;5035462;28;20550;-88
2022/03/22 06:33:02;;;;;;;18.20;12.55;;;;;;;6.68;74.44;102975.94;5053753;28;20167;-84
2022/03/22 06:35:29;;;;;;;17.13;11.90;;;;;;;6.74;74.36;102977.22;5035876;28;20033;-86
2022/03/22 06:37:56;;;;;;;16.08;11.60;;;;;;;6.80;74.03;102973.97;5053375;28;20025;-85
2022/03/22 06:40:24;;;;;;;16.25;11.43;;;;;;;6.87;73.80;102968.06;5035419;28;20033;-85
2022/03/22 06:42:50;;;;;;;15.98;11.60;;;;;;;6.96;73.69;102983.41;5051338;28;20454;-87
2022/03/22 06:45:16;;;;;;;18.15;13.18;;;;;;;7.05;74.00;102979.00;5035611;28;20030;-88
2022/03/22 06:47:43;;;;;;;15.75;11.45;;;;;;;7.14;73.43;102981.69;5035356;28;20072;-89
2022/03/22 06:50:10;;;;;;;14.27;10.63;;;;;;;7.23;73.00;102976.47;5035244;28;20032;-83
2022/03/22 06:52:37;;;;;;;17.15;11.63;;;;;;;7.31;72.82;102979.34;5035710;28;20474;-84
2022/03/22 06:55:03;;;;;;;17.23;12.00;;;;;;;7.40;72.00;102983.00;5053158;28;20122;-84
2022/03/22 06:57:31;;;;;;;17.25;11.98;;;;;;;7.49;71.61;102984.88;5034918;28;20559;-84
2022/03/22 07:00:00;;;;;;;18.17;12.32;;;;;;;7.58;71.02;102983.16;5035454;28;20091;-84
2022/03/22 07:02:26;;;;;;;18.65;12.13;;;;;;;7.67;71.04;102998.50;5035172;28;20052;-83
2022/03/22 07:04:52;;;;;;;17.90;12.82;;;;;;;7.74;70.95;102988.81;5035838;28;20416;-84
2022/03/22 07:07:18;;;;;;;17.48;11.95;;;;;;;7.83;70.68;102993.34;5034712;28;20117;-84
2022/03/22 07:09:44;;;;;;;16.83;11.93;;;;;;;7.92;70.49;102996.19;5034804;28;20043;-83
2022/03/22 07:12:10;;;;;;;17.58;11.75;;;;;;;8.00;69.95;102994.47;5034753;28;20037;-83
2022/03/22 07:14:40;;;;;;;16.05;11.82;;;;;;;8.09;69.45;102992.75;5052623;28;20025;-84
2022/03/22 07:17:07;;;;;;;18.05;12.27;;;;;;;8.17;69.63;102994.72;5019085;28;20120;-83
2022/03/22 07:19:34;;;;;;;19.42;12.65;;;;;;;8.25;69.18;102992.97;5034558;28;20025;-83
2022/03/22 07:22:01;;;;;;;17.33;12.18;;;;;;;8.37;69.12;102992.78;5034954;28;20098;-83
2022/03/22 07:24:26;;;;;;;15.35;10.88;;;;;;;8.45;68.75;102995.63;5052795;28;20033;-84
2022/03/22 07:26:52;;;;;;;16.75;11.50;;;;;;;8.53;68.09;102995.75;5038273;28;20136;-84
2022/03/22 07:29:17;;;;;;;14.80;10.60;;;;;;;8.63;67.79;102992.16;5037971;28;20083;-85
2022/03/22 07:31:43;;;;;;;14.20;9.93;;;;;;;8.71;67.94;102993.09;5038288;28;20033;-84
2022/03/22 07:34:15;;;;;;;13.95;10.10;;;;;;;8.82;67.11;102993.91;5038468;28;20035;-84
2022/03/22 07:36:46;;;;;;;13.18;9.43;;;;;;;8.94;67.27;102990.81;5038343;28;20021;-84
2022/03/22 07:39:14;;;;;;;13.85;9.70;;;;;;;9.03;66.98;102996.34;5055464;28;20416;-84
2022/03/22 07:41:43;;;;;;;13.50;10.15;;;;;;;9.15;66.34;103000.50;5055051;28;20059;-84
2022/03/22 07:44:13;;;;;;;14.40;10.00;;;;;;;9.26;65.83;102999.47;5039101;28;20031;-84
2022/03/22 07:46:42;;;;;;;14.52;9.98;;;;;;;9.36;65.84;102994.81;5056418;28;20035;-84
2022/03/22 07:54:36;;;;;;;17.30;11.45;;;;;;;9.70;63.88;102996.81;5041149;28;20102;-84
2022/03/22 07:57:03;;;;;;;15.73;11.30;;;;;;;9.82;63.48;103000.13;5037672;28;20037;-83
2022/03/22 07:59:29;;;;;;;19.88;14.27;;;;;;;9.95;62.71;102997.84;5055319;28;20118;-84
2022/03/22 08:01:55;;;;;;;18.25;12.60;;;;;;;10.06;62.42;103004.88;5055732;28;20040;-84
2022/03/22 08:04:21;;;;;;;19.15;13.70;;;;;;;10.20;62.15;102995.28;5056190;28;20024;-84
2022/03/22 08:06:46;;;;;;;16.88;12.07;;;;;;;10.32;61.64;103001.31;5038136;28;20040;-84
2022/03/22 08:09:12;;;;;;;16.38;11.30;;;;;;;10.46;61.14;103003.44;5037831;28;20036;-84
2022/03/22 08:11:39;;;;;;;14.68;10.40;;;;;;;10.59;61.38;103002.16;5056355;28;20123;-84
2022/03/22 08:14:05;;;;;;;17.23;12.77;;;;;;;10.69;60.06;103003.72;5038320;28;20033;-84
2022/03/22 08:16:31;;;;;;;17.55;11.60;;;;;;;10.85;59.60;103002.94;5037921;28;20127;-85
2022/03/22 08:18:56;;;;;;;18.63;12.93;;;;;;;10.99;58.96;103001.44;5056100;28;20109;-84
2022/03/22 08:21:22;;;;;;;16.45;10.80;;;;;;;11.11;58.69;103006.56;5038345;28;20033;-85
2022/03/22 08:23:47;;;;;;;18.02;11.32;;;;;;;11.20;58.10;102998.25;5038254;28;20060;-85
2022/03/22 08:26:16;;;;;;;14.77;10.27;;;;;;;11.32;57.52;103000.66;5037709;28;20064;-84
2022/03/22 08:28:43;;;;;;;19.35;13.20;;;;;;;11.44;56.26;103004.75;5055817;28;20492;-84
2022/03/22 08:31:11;;;;;;;16.52;11.02;;;;;;;11.56;56.44;103008.84;5037629;28;20124;-84
2022/03/22 08:33:37;;;;;;;17.00;11.07;;;;;;;11.67;55.99;103001.38;5037192;28;20056;-84
2022/03/22 08:36:02;;;;;;;16.48;10.65;;;;;;;11.79;55.43;103004.59;5037432;28;20072;-84
2022/03/22 08:38:28;;;;;;;15.02;10.40;;;;;;;11.88;55.22;103011.72;5055437;28;20033;-84
2022/03/22 08:40:56;;;;;;;14.35;9.25;;;;;;;11.96;55.22;103002.72;5037484;28;20041;-85
2022/03/22 08:43:22;;;;;;;13.60;8.88;;;;;;;12.06;54.54;103011.53;5053879;28;20033;-84
2022/03/22 08:45:48;;;;;;;13.93;9.15;;;;;;;12.17;54.53;103004.91;5037251;28;20033;-84
2022/03/22 08:48:13;;;;;;;13.93;9.43;;;;;;;12.27;54.37;102997.41;5053651;28;20090;-84
2022/03/22 08:50:44;;;;;;;13.68;9.23;;;;;;;12.38;53.97;103005.19;5055081;28;20036;-84
2022/03/22 08:53:11;;;;;;;15.25;10.77;;;;;;;12.49;52.20;103000.38;5054510;28;20021;-84
2022/03/22 08:55:36;;;;;;;15.20;10.02;;;;;;;12.59;51.99;102999.19;5036903;28;20048;-84
2022/03/22 08:58:05;;;;;;;17.48;11.35;;;;;;;12.71;52.51;102999.63;5054729;28;20053;-84
2022/03/22 09:00:35;;;;;;;15.85;10.00;;;;;;;12.79;51.64;102999.59;5020577;28;20556;-85
2022/03/22 09:03:03;;;;;;;14.85;10.00;;;;;;;12.89;50.75;103002.09;5054950;28;20083;-85
2022/03/22 09:08:13;;;;;;;17.25;10.43;;;;;;;13.08;49.91;102998.06;5054952;28;21907;-84
2022/03/22 09:10:40;;;;;;;15.90;10.65;;;;;;;13.21;49.22;103005.63;5054700;28;20108;-84
2022/03/22 09:13:07;;;;;;;13.93;9.50;;;;;;;13.32;49.51;102998.94;5036737;28;20380;-85
2022/03/22 09:15:39;;;;;;;16.67;10.18;;;;;;;13.43;48.69;102995.81;5054327;28;20037;-84
2022/03/22 09:18:12;;;;;;;16.52;10.35;;;;;;;13.54;49.18;102996.41;5054636;28;20036;-84
2022/03/22 09:20:38;;;;;;;14.18;9.70;;;;;;;13.63;48.81;102996.16;5054557;28;20025;-84
2022/03/22 09:23:04;;;;;;;13.77;10.00;;;;;;;13.72;49.06;102996.94;5020279;28;20039;-85
2022/03/22 09:25:29;;;;;;;13.57;9.32;;;;;;;13.82;47.99;102997.53;5054330;28;20033;-84
2022/03/22 09:27:56;;;;;;;14.50;9.50;;;;;;;13.93;47.45;102993.50;5054336;28;20037;-85
2022/03/22 09:30:23;;;;;;;14.18;9.70;;;;;;;14.02;46.86;102984.22;5054419;28;20465;-84
2022/03/22 09:32:50;;;;;;;14.27;9.27;;;;;;;14.13;46.93;102988.38;5054179;28;20060;-84
2022/03/22 09:35:19;;;;;;;15.70;10.10;;;;;;;14.22;45.92;102989.13;5036182;28;20029;-84
2022/03/22 09:37:46;;;;;;;14.25;9.52;;;;;;;14.31;46.21;102982.53;5054156;28;20469;-84
2022/03/22 09:40:13;;;;;;;14.80;9.88;;;;;;;14.43;45.27;102988.38;5036180;28;20036;-84
2022/03/22 09:42:43;;;;;;;19.02;10.90;;;;;;;14.53;45.18;102993.56;5052892;28;20037;-84
2022/03/22 09:45:14;;;;;;;17.38;10.82;;;;;;;14.66;44.78;102988.28;5054051;28;20029;-84
2022/03/22 09:47:42;;;;;;;16.13;10.68;;;;;;;14.79;44.72;102992.22;5053528;28;20507;-84
2022/03/22 09:50:09;;;;;;;16.58;10.38;;;;;;;14.89;44.86;102985.41;5053777;28;20126;-84
2022/03/22 09:52:36;;;;;;;14.25;9.20;;;;;;;15.01;44.52;102984.91;5053961;28;20035;-84
2022/03/22 09:55:04;;;;;;;13.70;9.82;;;;;;;15.12;43.41;102978.06;5053729;28;20021;-84
2022/03/22 09:57:29;;;;;;;15.13;10.15;;;;;;;15.22;43.03;102981.34;5053878;28;20033;-86
2022/03/22 09:59:55;;;;;;;13.90;10.32;;;;;;;15.34;42.09;102985.28;5054336;28;20115;-85
2022/03/22 10:02:32;;;;;;;14.35;9.88;;;;;;;15.43;43.90;102977.78;5019311;28;20025;-85
2022/03/22 10:04:57;;;;;;;14.60;10.13;;;;;;;15.61;43.53;102983.63;5052414;28;20029;-86
2022/03/22 10:07:23;;;;;;;13.45;10.02;;;;;;;15.76;42.81;102980.78;5035998;28;20025;-86
2022/03/22 10:09:55;;;;;;;17.83;10.98;;;;;;;15.93;43.43;102983.28;5053986;28;20047;-86
2022/03/22 10:12:34;;;;;;;17.27;10.98;;;;;;;16.12;43.28;102973.50;5053698;28;20033;-86
2022/03/22 10:15:30;;;;;;;12.98;9.23;;;;;;;16.36;43.78;102982.25;5053596;28;20028;-87
2022/03/22 10:18:07;;;;;;;20.48;13.15;;;;;;;16.49;42.94;102982.38;5034509;28;20068;-85
2022/03/22 10:20:35;;;;;;;17.00;11.52;;;;;;;16.61;40.07;102979.88;5035318;28;20039;-86
2022/03/22 10:23:02;;;;;;;16.45;11.05;;;;;;;16.78;39.97;102969.41;5053463;28;20032;-85
2022/03/22 10:25:31;;;;;;;14.63;10.07;;;;;;;16.95;39.36;102962.53;5018932;28;20045;-85
2022/03/22 10:27:58;;;;;;;15.65;10.02;;;;;;;17.17;39.85;102963.22;5036158;28;20036;-86
2022/03/22 10:30:23;;;;;;;15.05;9.77;;;;;;;17.42;38.29;102964.50;5018982;28;20033;-86
2022/03/22 10:32:53;;;;;;;13.98;9.30;;;;;;;17.60;37.14;102962.00;5035481;28;20048;-86
2022/03/22 10:35:27;;;;;;;15.80;10.30;;;;;;;17.75;37.26;102964.50;5035957;28;20072;-85
2022/03/22 10:37:57;;;;;;;12.95;9.02;;;;;;;17.95;36.66;102960.91;5053112;28;20104;-86
2022/03/22 10:40:25;;;;;;;14.82;9.45;;;;;;;18.18;37.20;102958.53;5051792;28;20032;-85
2022/03/22 10:42:53;;;;;;;12.85;9.20;;;;;;;18.44;36.50;102956.78;5035491;28;20033;-86
2022/03/22 10:45:18;;;;;;;17.45;9.57;;;;;;;18.66;35.70;102954.59;5053260;28;20078;-86
2022/03/22 10:47:44;;;;;;;13.38;9.38;;;;;;;18.84;35.35;102956.59;5052353;28;20037;-86
2022/03/22 10:50:10;;;;;;;16.50;10.43;;;;;;;19.02;34.43;102949.56;5052119;28;20407;-86
2022/03/22 10:52:50;;;;;;;16.70;10.95;;;;;;;19.21;36.86;102951.31;5035322;28;20025;-86
2022/03/22 10:55:19;;;;;;;12.85;9.35;;;;;;;19.45;34.34;102944.16;5053178;28;20029;-86
2022/03/22 10:57:50;;;;;;;13.35;9.70;;;;;;;19.75;34.24;102945.38;5035289;28;20037;-87
2022/03/22 11:00:16;;;;;;;12.35;9.00;;;;;;;19.99;33.07;102951.97;5055793;28;20044;-85
2022/03/22 11:02:42;;;;;;;14.48;9.07;;;;;;;20.26;32.57;102951.66;5039667;28;20055;-85
2022/03/22 11:05:09;;;;;;;15.07;10.13;;;;;;;20.44;31.66;102946.13;5055608;28;20033;-86
2022/03/22 11:07:37;;;;;;;14.57;8.88;;;;;;;20.66;31.68;102946.50;5057508;28;20108;-85
2022/03/22 11:10:03;;;;;;;11.98;8.73;;;;;;;20.88;31.93;102943.25;5038755;28;20029;-86
2022/03/22 11:12:29;;;;;;;15.15;10.25;;;;;;;21.16;30.96;102945.38;5055656;28;20086;-86
2022/03/22 11:14:55;;;;;;;14.80;10.75;;;;;;;21.36;30.73;102945.06;5038955;28;20424;-86
2022/03/22 11:17:24;;;;;;;11.63;8.70;;;;;;;21.73;30.15;102935.75;5038847;28;20036;-87
2022/03/22 11:19:50;;;;;;;13.13;9.48;;;;;;;22.42;29.62;102933.16;5038786;28;20128;-86
2022/03/22 11:22:18;;;;;;;12.23;8.18;;;;;;;24.56;28.32;102932.44;5057262;28;20178;-85
2022/03/22 11:24:44;;;;;;;11.50;8.10;;;;;;;27.50;24.78;102928.53;5038551;28;20037;-86
2022/03/22 11:27:10;;;;;;;10.75;8.23;;;;;;;29.80;21.30;102927.47;5038720;28;20052;-85
2022/03/22 11:29:39;;;;;;;9.48;7.68;;;;;;;31.96;21.35;102921.34;5038546;28;20126;-85
2022/03/22 11:34:58;;;;;;;12.50;9.13;;;;;;;35.07;17.98;102914.38;5041727;28;20052;-86
2022/03/22 11:37:34;;;;;;;10.95;7.55;;;;;;;36.16;18.58;102914.97;5056585;28;20029;-86
2022/03/22 11:43:00;;;;;;;10.30;7.85;;;;;;;38.28;13.72;102908.72;5056830;28;20174;-87
2022/03/22 11:45:26;;;;;;;10.80;8.25;;;;;;;39.22;12.88;102901.69;5055983;28;20491;-85
2022/03/22 11:47:54;;;;;;;10.68;8.77;;;;;;;39.94;13.33;102900.66;5038456;28;20033;-86
2022/03/22 11:50:21;;;;;;;9.60;8.52;;;;;;;40.27;13.55;102899.38;5055782;28;20029;-86